sensor_id;sensor_type;location;lat;lon;timestamp;P1;durP1;ratioP1;P2;durP2;ratioP2
45354;SDS011;31091;48.758;9.150;2023-06-22T00:01:29;10.10;;;6.50;;
45354;SDS011;31091;48.758;9.150;2023-06-22T00:04:15;9.13;;;6.68;;
45354;SDS011;31091;48.758;9.150;2023-06-22T00:07:01;8.50;;;5.75;;
45354;SDS011;31091;48.758;9.150;2023-06-22T00:09:46;11.43;;;6.22;;
45354;SDS011;31091;48.758;9.150;2023-06-22T00:12:32;9.52;;;5.95;;
45354;SDS011;31091;48.758;9.150;2023-06-22T00:15:17;12.10;;;6.20;;
45354;SDS011;31091;48.758;9.150;2023-06-22T00:18:03;10.85;;;6.53;;
45354;SDS011;31091;48.758;9.150;2023-06-22T00:20:48;11.40;;;6.22;;
45354;SDS011;31091;48.758;9.150;2023-06-22T00:23:34;10.80;;;6.45;;
45354;SDS011;31091;48.758;9.150;2023-06-22T00:26:20;10.52;;;6.55;;
45354;SDS011;31091;48.758;9.150;2023-06-22T00:29:06;10.32;;;5.78;;
45354;SDS011;31091;48.758;9.150;2023-06-22T00:31:51;9.32;;;5.72;;
45354;SDS011;31091;48.758;9.150;2023-06-22T00:34:37;9.15;;;6.03;;
45354;SDS011;31091;48.758;9.150;2023-06-22T00:37:22;10.82;;;6.40;;
45354;SDS011;31091;48.758;9.150;2023-06-22T00:40:10;11.13;;;6.78;;
45354;SDS011;31091;48.758;9.150;2023-06-22T00:42:57;8.75;;;6.18;;
45354;SDS011;31091;48.758;9.150;2023-06-22T00:45:43;10.55;;;6.22;;
45354;SDS011;31091;48.758;9.150;2023-06-22T00:48:28;10.63;;;6.35;;
45354;SDS011;31091;48.758;9.150;2023-06-22T00:51:14;9.73;;;6.70;;
45354;SDS011;31091;48.758;9.150;2023-06-22T00:54:00;9.73;;;6.07;;
45354;SDS011;31091;48.758;9.150;2023-06-22T00:56:45;10.32;;;6.72;;
45354;SDS011;31091;48.758;9.150;2023-06-22T00:59:31;9.63;;;6.78;;
45354;SDS011;31091;48.758;9.150;2023-06-22T01:02:17;11.82;;;6.60;;
45354;SDS011;31091;48.758;9.150;2023-06-22T01:05:03;9.75;;;6.13;;
45354;SDS011;31091;48.758;9.150;2023-06-22T01:16:17;11.75;;;6.70;;
45354;SDS011;31091;48.758;9.150;2023-06-22T01:19:24;7.97;;;5.60;;
45354;SDS011;31091;48.758;9.150;2023-06-22T01:22:11;8.35;;;6.10;;
45354;SDS011;31091;48.758;9.150;2023-06-22T01:25:10;10.95;;;6.72;;
45354;SDS011;31091;48.758;9.150;2023-06-22T01:28:05;10.77;;;6.25;;
45354;SDS011;31091;48.758;9.150;2023-06-22T01:31:00;10.43;;;5.85;;
45354;SDS011;31091;48.758;9.150;2023-06-22T01:33:54;8.07;;;5.18;;
45354;SDS011;31091;48.758;9.150;2023-06-22T01:36:40;12.30;;;6.85;;
45354;SDS011;31091;48.758;9.150;2023-06-22T01:39:26;9.65;;;6.30;;
45354;SDS011;31091;48.758;9.150;2023-06-22T01:42:12;8.50;;;6.38;;
45354;SDS011;31091;48.758;9.150;2023-06-22T01:44:58;9.73;;;5.93;;
45354;SDS011;31091;48.758;9.150;2023-06-22T01:47:44;18.05;;;6.43;;
45354;SDS011;31091;48.758;9.150;2023-06-22T01:50:30;7.68;;;5.60;;
45354;SDS011;31091;48.758;9.150;2023-06-22T01:53:16;9.07;;;5.90;;
45354;SDS011;31091;48.758;9.150;2023-06-22T01:56:01;9.20;;;5.55;;
45354;SDS011;31091;48.758;9.150;2023-06-22T01:58:50;9.82;;;6.68;;
45354;SDS011;31091;48.758;9.150;2023-06-22T02:01:44;11.73;;;6.10;;
45354;SDS011;31091;48.758;9.150;2023-06-22T02:04:34;9.75;;;6.38;;
45354;SDS011;31091;48.758;9.150;2023-06-22T02:07:21;9.55;;;6.07;;
45354;SDS011;31091;48.758;9.150;2023-06-22T02:10:08;10.35;;;6.03;;
45354;SDS011;31091;48.758;9.150;2023-06-22T02:12:57;9.35;;;5.50;;
45354;SDS011;31091;48.758;9.150;2023-06-22T02:15:44;9.93;;;6.03;;
45354;SDS011;31091;48.758;9.150;2023-06-22T02:18:30;8.68;;;5.25;;
45354;SDS011;31091;48.758;9.150;2023-06-22T02:21:16;10.20;;;5.65;;
45354;SDS011;31091;48.758;9.150;2023-06-22T02:24:02;9.80;;;5.57;;
45354;SDS011;31091;48.758;9.150;2023-06-22T02:26:48;8.13;;;4.97;;
45354;SDS011;31091;48.758;9.150;2023-06-22T02:29:33;10.90;;;6.47;;
45354;SDS011;31091;48.758;9.150;2023-06-22T02:32:19;10.23;;;6.47;;
45354;SDS011;31091;48.758;9.150;2023-06-22T02:35:04;8.82;;;6.55;;
45354;SDS011;31091;48.758;9.150;2023-06-22T02:37:50;10.18;;;6.50;;
45354;SDS011;31091;48.758;9.150;2023-06-22T02:40:37;10.10;;;6.28;;
45354;SDS011;31091;48.758;9.150;2023-06-22T02:43:22;10.40;;;5.70;;
45354;SDS011;31091;48.758;9.150;2023-06-22T02:46:08;9.10;;;5.45;;
45354;SDS011;31091;48.758;9.150;2023-06-22T02:48:53;9.38;;;5.35;;
45354;SDS011;31091;48.758;9.150;2023-06-22T02:51:41;8.98;;;6.40;;
45354;SDS011;31091;48.758;9.150;2023-06-22T02:54:27;8.30;;;4.95;;
45354;SDS011;31091;48.758;9.150;2023-06-22T02:57:12;11.32;;;6.05;;
45354;SDS011;31091;48.758;9.150;2023-06-22T02:59:59;9.05;;;5.50;;
45354;SDS011;31091;48.758;9.150;2023-06-22T03:02:45;9.02;;;6.60;;
45354;SDS011;31091;48.758;9.150;2023-06-22T03:05:31;8.75;;;6.50;;
45354;SDS011;31091;48.758;9.150;2023-06-22T03:08:18;11.95;;;6.13;;
45354;SDS011;31091;48.758;9.150;2023-06-22T03:11:03;8.20;;;5.70;;
45354;SDS011;31091;48.758;9.150;2023-06-22T03:13:49;10.40;;;5.90;;
45354;SDS011;31091;48.758;9.150;2023-06-22T03:16:34;9.95;;;7.93;;
45354;SDS011;31091;48.758;9.150;2023-06-22T03:19:20;10.18;;;5.93;;
45354;SDS011;31091;48.758;9.150;2023-06-22T03:22:06;8.07;;;5.88;;
45354;SDS011;31091;48.758;9.150;2023-06-22T03:24:52;9.77;;;6.25;;
45354;SDS011;31091;48.758;9.150;2023-06-22T03:27:41;10.10;;;5.60;;
45354;SDS011;31091;48.758;9.150;2023-06-22T03:30:27;9.60;;;6.53;;
45354;SDS011;31091;48.758;9.150;2023-06-22T03:33:12;9.45;;;6.32;;
45354;SDS011;31091;48.758;9.150;2023-06-22T03:35:58;9.43;;;6.28;;
45354;SDS011;31091;48.758;9.150;2023-06-22T03:38:44;9.45;;;5.95;;
45354;SDS011;31091;48.758;9.150;2023-06-22T03:41:30;10.55;;;6.53;;
45354;SDS011;31091;48.758;9.150;2023-06-22T03:44:15;9.65;;;6.07;;
45354;SDS011;31091;48.758;9.150;2023-06-22T03:47:01;11.40;;;5.53;;
45354;SDS011;31091;48.758;9.150;2023-06-22T03:49:47;11.35;;;6.80;;
45354;SDS011;31091;48.758;9.150;2023-06-22T03:52:33;11.52;;;5.93;;
45354;SDS011;31091;48.758;9.150;2023-06-22T03:55:21;11.13;;;6.30;;
45354;SDS011;31091;48.758;9.150;2023-06-22T03:58:07;8.57;;;6.20;;
45354;SDS011;31091;48.758;9.150;2023-06-22T04:00:54;11.13;;;7.35;;
45354;SDS011;31091;48.758;9.150;2023-06-22T04:03:40;9.38;;;5.72;;
45354;SDS011;31091;48.758;9.150;2023-06-22T04:06:26;9.63;;;6.38;;
45354;SDS011;31091;48.758;9.150;2023-06-22T04:09:11;11.38;;;6.30;;
45354;SDS011;31091;48.758;9.150;2023-06-22T04:11:57;9.65;;;6.05;;
45354;SDS011;31091;48.758;9.150;2023-06-22T04:14:43;9.05;;;6.32;;
45354;SDS011;31091;48.758;9.150;2023-06-22T04:17:28;9.88;;;6.35;;
45354;SDS011;31091;48.758;9.150;2023-06-22T04:20:14;10.30;;;6.10;;
45354;SDS011;31091;48.758;9.150;2023-06-22T04:22:59;9.10;;;5.85;;
45354;SDS011;31091;48.758;9.150;2023-06-22T04:25:44;8.70;;;6.13;;
45354;SDS011;31091;48.758;9.150;2023-06-22T04:28:30;11.43;;;6.13;;
45354;SDS011;31091;48.758;9.150;2023-06-22T04:31:20;9.35;;;6.13;;
45354;SDS011;31091;48.758;9.150;2023-06-22T04:34:06;11.10;;;6.78;;
45354;SDS011;31091;48.758;9.150;2023-06-22T04:36:51;11.43;;;6.50;;
45354;SDS011;31091;48.758;9.150;2023-06-22T04:39:37;9.98;;;6.40;;
45354;SDS011;31091;48.758;9.150;2023-06-22T04:42:22;10.88;;;6.20;;
45354;SDS011;31091;48.758;9.150;2023-06-22T04:45:07;10.27;;;6.75;;
45354;SDS011;31091;48.758;9.150;2023-06-22T04:47:54;10.77;;;6.43;;
45354;SDS011;31091;48.758;9.150;2023-06-22T04:50:39;10.07;;;6.35;;
45354;SDS011;31091;48.758;9.150;2023-06-22T04:53:24;10.70;;;7.38;;
45354;SDS011;31091;48.758;9.150;2023-06-22T04:56:14;8.68;;;6.35;;
45354;SDS011;31091;48.758;9.150;2023-06-22T04:59:02;10.93;;;6.32;;
45354;SDS011;31091;48.758;9.150;2023-06-22T05:01:50;12.30;;;6.65;;
45354;SDS011;31091;48.758;9.150;2023-06-22T05:04:36;11.77;;;7.60;;
45354;SDS011;31091;48.758;9.150;2023-06-22T05:07:23;9.50;;;6.45;;
45354;SDS011;31091;48.758;9.150;2023-06-22T05:10:10;9.40;;;6.07;;
45354;SDS011;31091;48.758;9.150;2023-06-22T05:12:57;10.77;;;6.50;;
45354;SDS011;31091;48.758;9.150;2023-06-22T05:15:42;11.55;;;6.07;;
45354;SDS011;31091;48.758;9.150;2023-06-22T05:18:28;10.30;;;7.15;;
45354;SDS011;31091;48.758;9.150;2023-06-22T05:21:14;9.38;;;5.88;;
45354;SDS011;31091;48.758;9.150;2023-06-22T05:23:59;9.57;;;6.55;;
45354;SDS011;31091;48.758;9.150;2023-06-22T05:26:47;10.50;;;6.72;;
45354;SDS011;31091;48.758;9.150;2023-06-22T05:29:32;9.00;;;6.20;;
45354;SDS011;31091;48.758;9.150;2023-06-22T05:32:18;10.13;;;6.63;;
45354;SDS011;31091;48.758;9.150;2023-06-22T05:35:03;10.43;;;7.10;;
45354;SDS011;31091;48.758;9.150;2023-06-22T05:37:49;9.10;;;6.32;;
45354;SDS011;31091;48.758;9.150;2023-06-22T05:40:34;13.70;;;7.30;;
45354;SDS011;31091;48.758;9.150;2023-06-22T05:43:19;11.15;;;7.22;;
45354;SDS011;31091;48.758;9.150;2023-06-22T05:46:04;13.60;;;8.00;;
45354;SDS011;31091;48.758;9.150;2023-06-22T05:48:50;14.20;;;8.05;;
45354;SDS011;31091;48.758;9.150;2023-06-22T05:51:35;13.27;;;7.43;;
45354;SDS011;31091;48.758;9.150;2023-06-22T05:54:20;12.30;;;7.45;;
45354;SDS011;31091;48.758;9.150;2023-06-22T05:57:05;11.38;;;7.10;;
45354;SDS011;31091;48.758;9.150;2023-06-22T05:59:51;14.05;;;7.30;;
45354;SDS011;31091;48.758;9.150;2023-06-22T06:02:37;16.25;;;7.68;;
45354;SDS011;31091;48.758;9.150;2023-06-22T06:05:22;15.55;;;7.35;;
45354;SDS011;31091;48.758;9.150;2023-06-22T06:08:08;13.07;;;7.68;;
45354;SDS011;31091;48.758;9.150;2023-06-22T06:10:55;12.80;;;8.02;;
45354;SDS011;31091;48.758;9.150;2023-06-22T06:13:41;11.85;;;6.93;;
45354;SDS011;31091;48.758;9.150;2023-06-22T06:16:27;14.00;;;6.32;;
45354;SDS011;31091;48.758;9.150;2023-06-22T06:19:12;12.18;;;6.38;;
45354;SDS011;31091;48.758;9.150;2023-06-22T06:21:57;13.52;;;7.00;;
45354;SDS011;31091;48.758;9.150;2023-06-22T06:24:42;10.27;;;6.97;;
45354;SDS011;31091;48.758;9.150;2023-06-22T06:27:28;11.90;;;7.47;;
45354;SDS011;31091;48.758;9.150;2023-06-22T06:30:14;13.23;;;6.70;;
45354;SDS011;31091;48.758;9.150;2023-06-22T06:33:00;12.15;;;5.75;;
45354;SDS011;31091;48.758;9.150;2023-06-22T06:35:45;13.73;;;6.22;;
45354;SDS011;31091;48.758;9.150;2023-06-22T06:38:30;11.25;;;5.65;;
45354;SDS011;31091;48.758;9.150;2023-06-22T06:41:16;9.48;;;5.75;;
45354;SDS011;31091;48.758;9.150;2023-06-22T06:44:01;22.05;;;6.65;;
45354;SDS011;31091;48.758;9.150;2023-06-22T06:46:46;10.80;;;5.65;;
45354;SDS011;31091;48.758;9.150;2023-06-22T06:49:33;11.57;;;6.88;;
45354;SDS011;31091;48.758;9.150;2023-06-22T06:52:18;9.40;;;5.75;;
45354;SDS011;31091;48.758;9.150;2023-06-22T06:55:04;8.38;;;5.47;;
45354;SDS011;31091;48.758;9.150;2023-06-22T06:57:53;11.57;;;5.80;;
45354;SDS011;31091;48.758;9.150;2023-06-22T07:00:38;11.35;;;5.60;;
45354;SDS011;31091;48.758;9.150;2023-06-22T07:03:24;13.63;;;5.50;;
45354;SDS011;31091;48.758;9.150;2023-06-22T07:06:09;11.63;;;5.55;;
45354;SDS011;31091;48.758;9.150;2023-06-22T07:08:55;9.85;;;5.20;;
45354;SDS011;31091;48.758;9.150;2023-06-22T07:11:40;9.23;;;4.90;;
45354;SDS011;31091;48.758;9.150;2023-06-22T07:14:25;11.35;;;5.35;;
45354;SDS011;31091;48.758;9.150;2023-06-22T07:17:10;10.35;;;5.88;;
45354;SDS011;31091;48.758;9.150;2023-06-22T07:19:55;12.40;;;6.30;;
45354;SDS011;31091;48.758;9.150;2023-06-22T07:22:43;9.93;;;5.70;;
45354;SDS011;31091;48.758;9.150;2023-06-22T07:25:32;9.50;;;5.55;;
45354;SDS011;31091;48.758;9.150;2023-06-22T07:28:17;9.18;;;5.90;;
45354;SDS011;31091;48.758;9.150;2023-06-22T07:31:02;12.35;;;5.35;;
45354;SDS011;31091;48.758;9.150;2023-06-22T07:33:49;10.48;;;5.32;;
45354;SDS011;31091;48.758;9.150;2023-06-22T07:36:34;11.05;;;5.18;;
45354;SDS011;31091;48.758;9.150;2023-06-22T07:39:20;6.80;;;4.90;;
45354;SDS011;31091;48.758;9.150;2023-06-22T07:42:10;11.32;;;4.95;;
45354;SDS011;31091;48.758;9.150;2023-06-22T07:44:56;7.10;;;4.57;;
45354;SDS011;31091;48.758;9.150;2023-06-22T07:47:41;11.50;;;5.13;;
45354;SDS011;31091;48.758;9.150;2023-06-22T07:50:26;9.23;;;4.65;;
45354;SDS011;31091;48.758;9.150;2023-06-22T07:53:11;6.13;;;4.78;;
45354;SDS011;31091;48.758;9.150;2023-06-22T07:55:57;6.85;;;4.72;;
45354;SDS011;31091;48.758;9.150;2023-06-22T07:58:52;8.45;;;4.60;;
45354;SDS011;31091;48.758;9.150;2023-06-22T08:01:38;9.60;;;5.15;;
45354;SDS011;31091;48.758;9.150;2023-06-22T08:04:23;8.90;;;5.00;;
45354;SDS011;31091;48.758;9.150;2023-06-22T08:07:08;6.32;;;4.10;;
45354;SDS011;31091;48.758;9.150;2023-06-22T08:09:54;7.05;;;4.32;;
45354;SDS011;31091;48.758;9.150;2023-06-22T08:12:39;7.35;;;4.72;;
45354;SDS011;31091;48.758;9.150;2023-06-22T08:15:26;7.43;;;4.30;;
45354;SDS011;31091;48.758;9.150;2023-06-22T08:18:11;8.10;;;5.10;;
45354;SDS011;31091;48.758;9.150;2023-06-22T08:20:57;9.13;;;4.53;;
45354;SDS011;31091;48.758;9.150;2023-06-22T08:23:42;9.02;;;4.80;;
45354;SDS011;31091;48.758;9.150;2023-06-22T08:26:28;9.68;;;4.70;;
45354;SDS011;31091;48.758;9.150;2023-06-22T08:29:13;11.38;;;4.93;;
45354;SDS011;31091;48.758;9.150;2023-06-22T08:31:59;8.52;;;4.43;;
45354;SDS011;31091;48.758;9.150;2023-06-22T08:34:44;7.82;;;4.43;;
45354;SDS011;31091;48.758;9.150;2023-06-22T08:37:29;8.90;;;4.60;;
45354;SDS011;31091;48.758;9.150;2023-06-22T08:40:20;7.55;;;4.32;;
45354;SDS011;31091;48.758;9.150;2023-06-22T08:43:05;10.43;;;4.50;;
45354;SDS011;31091;48.758;9.150;2023-06-22T08:45:50;7.22;;;3.67;;
45354;SDS011;31091;48.758;9.150;2023-06-22T08:48:35;11.52;;;5.38;;
45354;SDS011;31091;48.758;9.150;2023-06-22T08:51:21;9.60;;;5.00;;
45354;SDS011;31091;48.758;9.150;2023-06-22T08:54:06;8.68;;;4.80;;
45354;SDS011;31091;48.758;9.150;2023-06-22T08:56:51;10.15;;;4.13;;
45354;SDS011;31091;48.758;9.150;2023-06-22T08:59:37;14.32;;;4.53;;
45354;SDS011;31091;48.758;9.150;2023-06-22T09:02:22;11.02;;;5.22;;
45354;SDS011;31091;48.758;9.150;2023-06-22T09:05:07;10.60;;;4.35;;
45354;SDS011;31091;48.758;9.150;2023-06-22T09:07:52;7.97;;;4.05;;
45354;SDS011;31091;48.758;9.150;2023-06-22T09:10:39;9.15;;;4.00;;
45354;SDS011;31091;48.758;9.150;2023-06-22T09:13:25;8.73;;;4.82;;
45354;SDS011;31091;48.758;9.150;2023-06-22T09:16:10;10.43;;;4.40;;
45354;SDS011;31091;48.758;9.150;2023-06-22T09:18:56;10.30;;;4.82;;
45354;SDS011;31091;48.758;9.150;2023-06-22T09:21:41;9.55;;;4.18;;
45354;SDS011;31091;48.758;9.150;2023-06-22T09:24:27;10.60;;;5.40;;
45354;SDS011;31091;48.758;9.150;2023-06-22T09:27:12;9.75;;;4.35;;
45354;SDS011;31091;48.758;9.150;2023-06-22T09:29:57;7.05;;;4.55;;
45354;SDS011;31091;48.758;9.150;2023-06-22T09:32:43;12.73;;;5.03;;
45354;SDS011;31091;48.758;9.150;2023-06-22T09:35:28;13.65;;;4.63;;
45354;SDS011;31091;48.758;9.150;2023-06-22T09:38:14;9.10;;;4.63;;
45354;SDS011;31091;48.758;9.150;2023-06-22T09:40:59;11.40;;;4.95;;
45354;SDS011;31091;48.758;9.150;2023-06-22T09:43:44;10.90;;;4.70;;
45354;SDS011;31091;48.758;9.150;2023-06-22T09:46:29;12.82;;;5.07;;
45354;SDS011;31091;48.758;9.150;2023-06-22T09:49:14;9.40;;;5.25;;
45354;SDS011;31091;48.758;9.150;2023-06-22T09:52:00;11.80;;;4.95;;
45354;SDS011;31091;48.758;9.150;2023-06-22T09:54:45;10.48;;;4.75;;
45354;SDS011;31091;48.758;9.150;2023-06-22T09:57:30;11.80;;;5.00;;
45354;SDS011;31091;48.758;9.150;2023-06-22T10:00:16;13.20;;;5.47;;
45354;SDS011;31091;48.758;9.150;2023-06-22T10:03:01;40.92;;;33.45;;
45354;SDS011;31091;48.758;9.150;2023-06-22T10:05:47;82.57;;;74.40;;
45354;SDS011;31091;48.758;9.150;2023-06-22T10:08:32;206.27;;;184.80;;
45354;SDS011;31091;48.758;9.150;2023-06-22T10:11:17;193.43;;;143.35;;
45354;SDS011;31091;48.758;9.150;2023-06-22T10:14:02;1046.85;;;674.72;;
45354;SDS011;31091;48.758;9.150;2023-06-22T10:16:49;675.92;;;522.97;;
45354;SDS011;31091;48.758;9.150;2023-06-22T10:19:34;509.42;;;386.52;;
45354;SDS011;31091;48.758;9.150;2023-06-22T10:22:22;364.02;;;257.20;;
45354;SDS011;31091;48.758;9.150;2023-06-22T10:25:07;428.85;;;301.50;;
45354;SDS011;31091;48.758;9.150;2023-06-22T10:27:53;391.08;;;267.13;;
45354;SDS011;31091;48.758;9.150;2023-06-22T10:30:41;321.83;;;217.20;;
45354;SDS011;31091;48.758;9.150;2023-06-22T10:33:26;144.65;;;100.50;;
45354;SDS011;31091;48.758;9.150;2023-06-22T10:36:11;210.02;;;137.05;;
45354;SDS011;31091;48.758;9.150;2023-06-22T10:38:57;35.03;;;21.60;;
45354;SDS011;31091;48.758;9.150;2023-06-22T10:41:44;148.85;;;94.78;;
45354;SDS011;31091;48.758;9.150;2023-06-22T10:44:29;44.85;;;26.77;;
45354;SDS011;31091;48.758;9.150;2023-06-22T10:47:14;97.65;;;61.80;;
45354;SDS011;31091;48.758;9.150;2023-06-22T10:50:00;81.60;;;52.10;;
45354;SDS011;31091;48.758;9.150;2023-06-22T10:52:45;88.85;;;56.88;;
45354;SDS011;31091;48.758;9.150;2023-06-22T10:55:30;69.28;;;46.22;;
45354;SDS011;31091;48.758;9.150;2023-06-22T10:58:17;54.85;;;35.90;;
45354;SDS011;31091;48.758;9.150;2023-06-22T11:01:02;64.97;;;42.65;;
45354;SDS011;31091;48.758;9.150;2023-06-22T11:03:48;57.58;;;36.03;;
45354;SDS011;31091;48.758;9.150;2023-06-22T11:06:33;40.38;;;26.08;;
45354;SDS011;31091;48.758;9.150;2023-06-22T11:09:18;40.53;;;26.25;;
45354;SDS011;31091;48.758;9.150;2023-06-22T11:12:06;21.25;;;13.35;;
45354;SDS011;31091;48.758;9.150;2023-06-22T11:14:51;22.92;;;14.25;;
45354;SDS011;31091;48.758;9.150;2023-06-22T11:17:36;31.17;;;18.35;;
45354;SDS011;31091;48.758;9.150;2023-06-22T11:20:22;17.77;;;10.45;;
45354;SDS011;31091;48.758;9.150;2023-06-22T11:23:07;23.65;;;13.40;;
45354;SDS011;31091;48.758;9.150;2023-06-22T11:25:52;19.23;;;11.65;;
45354;SDS011;31091;48.758;9.150;2023-06-22T11:28:37;25.45;;;10.38;;
45354;SDS011;31091;48.758;9.150;2023-06-22T11:31:22;15.15;;;7.50;;
45354;SDS011;31091;48.758;9.150;2023-06-22T11:34:08;13.45;;;8.27;;
45354;SDS011;31091;48.758;9.150;2023-06-22T11:36:53;16.25;;;9.20;;
45354;SDS011;31091;48.758;9.150;2023-06-22T11:39:38;19.38;;;9.10;;
45354;SDS011;31091;48.758;9.150;2023-06-22T11:42:23;22.58;;;8.48;;
45354;SDS011;31091;48.758;9.150;2023-06-22T11:45:08;19.15;;;7.63;;
45354;SDS011;31091;48.758;9.150;2023-06-22T11:47:54;13.93;;;7.00;;
45354;SDS011;31091;48.758;9.150;2023-06-22T11:50:39;12.40;;;5.93;;
45354;SDS011;31091;48.758;9.150;2023-06-22T11:53:25;18.02;;;7.38;;
45354;SDS011;31091;48.758;9.150;2023-06-22T11:56:10;15.40;;;7.68;;
45354;SDS011;31091;48.758;9.150;2023-06-22T11:58:56;12.50;;;7.15;;
45354;SDS011;31091;48.758;9.150;2023-06-22T12:01:41;15.23;;;6.90;;
45354;SDS011;31091;48.758;9.150;2023-06-22T12:04:26;12.07;;;7.65;;
45354;SDS011;31091;48.758;9.150;2023-06-22T12:07:11;17.08;;;6.93;;
45354;SDS011;31091;48.758;9.150;2023-06-22T12:09:57;11.95;;;6.53;;
45354;SDS011;31091;48.758;9.150;2023-06-22T12:12:42;16.13;;;7.00;;
45354;SDS011;31091;48.758;9.150;2023-06-22T12:15:27;14.27;;;6.03;;
45354;SDS011;31091;48.758;9.150;2023-06-22T12:18:12;14.27;;;7.10;;
45354;SDS011;31091;48.758;9.150;2023-06-22T12:20:59;15.25;;;7.68;;
45354;SDS011;31091;48.758;9.150;2023-06-22T12:23:45;12.57;;;6.32;;
45354;SDS011;31091;48.758;9.150;2023-06-22T12:26:30;12.75;;;6.13;;
45354;SDS011;31091;48.758;9.150;2023-06-22T12:29:15;14.68;;;5.82;;
45354;SDS011;31091;48.758;9.150;2023-06-22T12:32:00;13.30;;;6.35;;
45354;SDS011;31091;48.758;9.150;2023-06-22T12:34:45;11.30;;;6.20;;
45354;SDS011;31091;48.758;9.150;2023-06-22T12:37:31;9.48;;;5.07;;
45354;SDS011;31091;48.758;9.150;2023-06-22T12:40:16;12.00;;;5.45;;
45354;SDS011;31091;48.758;9.150;2023-06-22T12:43:02;9.30;;;5.93;;
45354;SDS011;31091;48.758;9.150;2023-06-22T12:45:47;13.68;;;6.28;;
45354;SDS011;31091;48.758;9.150;2023-06-22T12:48:32;9.57;;;6.13;;
45354;SDS011;31091;48.758;9.150;2023-06-22T12:51:23;10.30;;;5.85;;
45354;SDS011;31091;48.758;9.150;2023-06-22T12:54:09;11.65;;;5.65;;
45354;SDS011;31091;48.758;9.150;2023-06-22T12:56:55;9.57;;;5.88;;
45354;SDS011;31091;48.758;9.150;2023-06-22T12:59:40;13.45;;;5.50;;
45354;SDS011;31091;48.758;9.150;2023-06-22T13:02:26;12.50;;;5.47;;
45354;SDS011;31091;48.758;9.150;2023-06-22T13:05:11;11.38;;;5.10;;
45354;SDS011;31091;48.758;9.150;2023-06-22T13:07:56;15.43;;;5.93;;
45354;SDS011;31091;48.758;9.150;2023-06-22T13:10:41;16.20;;;6.00;;
45354;SDS011;31091;48.758;9.150;2023-06-22T13:13:27;10.95;;;5.15;;
45354;SDS011;31091;48.758;9.150;2023-06-22T13:16:12;10.88;;;5.28;;
45354;SDS011;31091;48.758;9.150;2023-06-22T13:18:57;15.13;;;5.72;;
45354;SDS011;31091;48.758;9.150;2023-06-22T13:21:42;12.07;;;6.30;;
45354;SDS011;31091;48.758;9.150;2023-06-22T13:24:28;13.63;;;5.20;;
45354;SDS011;31091;48.758;9.150;2023-06-22T13:27:13;12.57;;;5.95;;
45354;SDS011;31091;48.758;9.150;2023-06-22T13:29:58;10.88;;;6.50;;
45354;SDS011;31091;48.758;9.150;2023-06-22T13:32:43;9.75;;;5.72;;
45354;SDS011;31091;48.758;9.150;2023-06-22T13:35:28;12.07;;;5.85;;
45354;SDS011;31091;48.758;9.150;2023-06-22T13:38:14;10.80;;;5.78;;
45354;SDS011;31091;48.758;9.150;2023-06-22T13:40:59;11.07;;;5.25;;
45354;SDS011;31091;48.758;9.150;2023-06-22T13:43:44;13.77;;;6.20;;
45354;SDS011;31091;48.758;9.150;2023-06-22T13:46:29;11.80;;;6.18;;
45354;SDS011;31091;48.758;9.150;2023-06-22T13:49:15;19.08;;;5.93;;
45354;SDS011;31091;48.758;9.150;2023-06-22T13:52:00;11.32;;;5.18;;
45354;SDS011;31091;48.758;9.150;2023-06-22T13:54:45;12.57;;;5.93;;
45354;SDS011;31091;48.758;9.150;2023-06-22T13:57:30;9.90;;;5.07;;
45354;SDS011;31091;48.758;9.150;2023-06-22T14:00:16;13.60;;;6.47;;
45354;SDS011;31091;48.758;9.150;2023-06-22T14:03:01;13.20;;;5.57;;
45354;SDS011;31091;48.758;9.150;2023-06-22T14:05:46;11.35;;;5.32;;
45354;SDS011;31091;48.758;9.150;2023-06-22T14:08:32;15.75;;;5.88;;
45354;SDS011;31091;48.758;9.150;2023-06-22T14:11:17;11.48;;;5.60;;
45354;SDS011;31091;48.758;9.150;2023-06-22T14:14:02;13.70;;;5.88;;
45354;SDS011;31091;48.758;9.150;2023-06-22T14:16:48;15.10;;;5.97;;
45354;SDS011;31091;48.758;9.150;2023-06-22T14:19:34;14.20;;;5.43;;
45354;SDS011;31091;48.758;9.150;2023-06-22T14:22:20;12.75;;;5.50;;
45354;SDS011;31091;48.758;9.150;2023-06-22T14:25:05;11.35;;;4.88;;
45354;SDS011;31091;48.758;9.150;2023-06-22T14:27:50;14.30;;;5.50;;
45354;SDS011;31091;48.758;9.150;2023-06-22T14:30:36;10.18;;;5.40;;
45354;SDS011;31091;48.758;9.150;2023-06-22T14:33:21;11.05;;;4.97;;
45354;SDS011;31091;48.758;9.150;2023-06-22T14:36:06;13.23;;;5.30;;
45354;SDS011;31091;48.758;9.150;2023-06-22T14:38:51;15.75;;;5.70;;
45354;SDS011;31091;48.758;9.150;2023-06-22T14:41:36;10.65;;;4.75;;
45354;SDS011;31091;48.758;9.150;2023-06-22T14:44:22;12.30;;;5.03;;
45354;SDS011;31091;48.758;9.150;2023-06-22T14:47:07;13.80;;;4.68;;
45354;SDS011;31091;48.758;9.150;2023-06-22T14:49:52;12.00;;;3.63;;
45354;SDS011;31091;48.758;9.150;2023-06-22T14:52:37;15.05;;;3.92;;
45354;SDS011;31091;48.758;9.150;2023-06-22T14:55:23;11.63;;;3.97;;
45354;SDS011;31091;48.758;9.150;2023-06-22T14:58:09;13.25;;;3.40;;
45354;SDS011;31091;48.758;9.150;2023-06-22T15:00:55;11.20;;;3.72;;
45354;SDS011;31091;48.758;9.150;2023-06-22T15:03:40;11.35;;;4.10;;
45354;SDS011;31091;48.758;9.150;2023-06-22T15:06:25;16.35;;;4.50;;
45354;SDS011;31091;48.758;9.150;2023-06-22T15:09:12;17.35;;;3.60;;
45354;SDS011;31091;48.758;9.150;2023-06-22T15:11:57;17.10;;;5.05;;
45354;SDS011;31091;48.758;9.150;2023-06-22T15:14:42;12.20;;;3.42;;
45354;SDS011;31091;48.758;9.150;2023-06-22T15:17:28;12.20;;;3.38;;
45354;SDS011;31091;48.758;9.150;2023-06-22T15:20:15;13.05;;;4.10;;
45354;SDS011;31091;48.758;9.150;2023-06-22T15:23:00;11.57;;;4.43;;
45354;SDS011;31091;48.758;9.150;2023-06-22T15:25:45;14.57;;;4.60;;
45354;SDS011;31091;48.758;9.150;2023-06-22T15:28:31;12.77;;;4.25;;
45354;SDS011;31091;48.758;9.150;2023-06-22T15:31:17;12.55;;;3.58;;
45354;SDS011;31091;48.758;9.150;2023-06-22T15:34:03;16.95;;;4.82;;
45354;SDS011;31091;48.758;9.150;2023-06-22T15:36:48;12.43;;;3.78;;
45354;SDS011;31091;48.758;9.150;2023-06-22T15:39:34;17.17;;;4.72;;
45354;SDS011;31091;48.758;9.150;2023-06-22T15:42:19;13.68;;;3.67;;
45354;SDS011;31091;48.758;9.150;2023-06-22T15:45:04;9.73;;;3.85;;
45354;SDS011;31091;48.758;9.150;2023-06-22T15:47:50;11.88;;;3.40;;
45354;SDS011;31091;48.758;9.150;2023-06-22T15:50:35;9.95;;;3.47;;
45354;SDS011;31091;48.758;9.150;2023-06-22T15:53:20;12.85;;;4.30;;
45354;SDS011;31091;48.758;9.150;2023-06-22T15:56:05;13.38;;;4.60;;
45354;SDS011;31091;48.758;9.150;2023-06-22T15:58:54;12.07;;;4.25;;
45354;SDS011;31091;48.758;9.150;2023-06-22T16:01:41;11.48;;;4.03;;
45354;SDS011;31091;48.758;9.150;2023-06-22T16:04:27;10.52;;;4.00;;
45354;SDS011;31091;48.758;9.150;2023-06-22T16:07:12;13.02;;;3.90;;
45354;SDS011;31091;48.758;9.150;2023-06-22T16:09:58;10.60;;;4.03;;
45354;SDS011;31091;48.758;9.150;2023-06-22T16:12:43;10.13;;;3.63;;
45354;SDS011;31091;48.758;9.150;2023-06-22T16:15:29;9.38;;;3.83;;
45354;SDS011;31091;48.758;9.150;2023-06-22T16:18:14;15.10;;;4.22;;
45354;SDS011;31091;48.758;9.150;2023-06-22T16:21:00;13.00;;;3.80;;
45354;SDS011;31091;48.758;9.150;2023-06-22T16:23:46;12.18;;;3.47;;
45354;SDS011;31091;48.758;9.150;2023-06-22T16:26:37;12.90;;;3.97;;
45354;SDS011;31091;48.758;9.150;2023-06-22T16:29:22;10.70;;;3.97;;
45354;SDS011;31091;48.758;9.150;2023-06-22T16:32:07;11.25;;;3.40;;
45354;SDS011;31091;48.758;9.150;2023-06-22T16:34:53;12.18;;;3.83;;